sensor_id;sensor_type;location;lat;lon;timestamp;P1;durP1;ratioP1;P2;durP2;ratioP2
43118;SDS011;28729;49.838;8.650;2022-07-23T00:03:52;10.80;;;6.63;;
43118;SDS011;28729;49.838;8.650;2022-07-23T00:07:55;10.57;;;6.88;;
43118;SDS011;28729;49.838;8.650;2022-07-23T00:11:57;8.52;;;6.30;;
43118;SDS011;28729;49.838;8.650;2022-07-23T00:15:58;9.95;;;6.90;;
43118;SDS011;28729;49.838;8.650;2022-07-23T00:20:00;8.98;;;6.28;;
43118;SDS011;28729;49.838;8.650;2022-07-23T00:24:02;9.00;;;5.73;;
43118;SDS011;28729;49.838;8.650;2022-07-23T00:28:04;8.50;;;6.30;;
43118;SDS011;28729;49.838;8.650;2022-07-23T00:32:05;8.23;;;6.10;;
43118;SDS011;28729;49.838;8.650;2022-07-23T00:36:07;9.35;;;5.68;;
43118;SDS011;28729;49.838;8.650;2022-07-23T00:40:09;10.20;;;6.43;;
43118;SDS011;28729;49.838;8.650;2022-07-23T00:44:18;8.40;;;6.22;;
43118;SDS011;28729;49.838;8.650;2022-07-23T00:48:21;8.95;;;6.95;;
43118;SDS011;28729;49.838;8.650;2022-07-23T00:52:23;11.60;;;7.30;;
43118;SDS011;28729;49.838;8.650;2022-07-23T00:56:25;12.05;;;6.72;;
43118;SDS011;28729;49.838;8.650;2022-07-23T01:00:27;11.15;;;6.90;;
43118;SDS011;28729;49.838;8.650;2022-07-23T01:04:29;10.65;;;6.47;;
43118;SDS011;28729;49.838;8.650;2022-07-23T01:08:31;11.53;;;7.57;;
43118;SDS011;28729;49.838;8.650;2022-07-23T01:12:33;14.43;;;7.40;;
43118;SDS011;28729;49.838;8.650;2022-07-23T01:16:35;10.23;;;6.60;;
43118;SDS011;28729;49.838;8.650;2022-07-23T01:20:37;10.40;;;7.50;;
43118;SDS011;28729;49.838;8.650;2022-07-23T01:24:40;11.60;;;6.65;;
43118;SDS011;28729;49.838;8.650;2022-07-23T01:28:41;11.52;;;7.55;;
43118;SDS011;28729;49.838;8.650;2022-07-23T01:32:43;9.45;;;7.38;;
43118;SDS011;28729;49.838;8.650;2022-07-23T01:36:45;11.65;;;8.27;;
43118;SDS011;28729;49.838;8.650;2022-07-23T01:40:50;11.38;;;8.25;;
43118;SDS011;28729;49.838;8.650;2022-07-23T01:44:57;12.27;;;8.38;;
43118;SDS011;28729;49.838;8.650;2022-07-23T01:48:58;11.65;;;7.57;;
43118;SDS011;28729;49.838;8.650;2022-07-23T01:53:19;12.63;;;8.70;;
43118;SDS011;28729;49.838;8.650;2022-07-23T01:57:22;11.68;;;8.25;;
43118;SDS011;28729;49.838;8.650;2022-07-23T02:01:23;12.95;;;8.15;;
43118;SDS011;28729;49.838;8.650;2022-07-23T02:05:26;13.37;;;8.40;;
43118;SDS011;28729;49.838;8.650;2022-07-23T02:09:29;11.90;;;7.80;;
43118;SDS011;28729;49.838;8.650;2022-07-23T02:13:32;12.60;;;8.23;;
43118;SDS011;28729;49.838;8.650;2022-07-23T02:21:36;12.85;;;8.35;;
43118;SDS011;28729;49.838;8.650;2022-07-23T02:25:38;10.75;;;8.02;;
43118;SDS011;28729;49.838;8.650;2022-07-23T02:29:39;14.27;;;9.00;;
43118;SDS011;28729;49.838;8.650;2022-07-23T02:33:41;13.40;;;8.30;;
43118;SDS011;28729;49.838;8.650;2022-07-23T02:37:43;13.02;;;8.15;;
43118;SDS011;28729;49.838;8.650;2022-07-23T02:41:44;14.18;;;8.60;;
43118;SDS011;28729;49.838;8.650;2022-07-23T02:45:46;13.20;;;8.32;;
43118;SDS011;28729;49.838;8.650;2022-07-23T02:49:48;16.88;;;8.68;;
43118;SDS011;28729;49.838;8.650;2022-07-23T02:53:50;14.25;;;8.45;;
43118;SDS011;28729;49.838;8.650;2022-07-23T02:57:51;15.10;;;8.27;;
43118;SDS011;28729;49.838;8.650;2022-07-23T03:01:53;13.37;;;8.60;;
43118;SDS011;28729;49.838;8.650;2022-07-23T03:05:55;13.07;;;8.57;;
43118;SDS011;28729;49.838;8.650;2022-07-23T03:09:58;12.80;;;9.20;;
43118;SDS011;28729;49.838;8.650;2022-07-23T03:13:59;14.25;;;9.35;;
43118;SDS011;28729;49.838;8.650;2022-07-23T03:18:01;13.82;;;10.27;;
43118;SDS011;28729;49.838;8.650;2022-07-23T03:22:04;17.17;;;9.45;;
43118;SDS011;28729;49.838;8.650;2022-07-23T03:26:06;16.35;;;9.73;;
43118;SDS011;28729;49.838;8.650;2022-07-23T03:30:08;15.50;;;9.93;;
43118;SDS011;28729;49.838;8.650;2022-07-23T03:34:09;16.60;;;10.20;;
43118;SDS011;28729;49.838;8.650;2022-07-23T03:38:11;16.13;;;10.00;;
43118;SDS011;28729;49.838;8.650;2022-07-23T03:42:14;13.82;;;9.55;;
43118;SDS011;28729;49.838;8.650;2022-07-23T03:46:15;16.33;;;9.77;;
43118;SDS011;28729;49.838;8.650;2022-07-23T03:50:17;16.65;;;9.85;;
43118;SDS011;28729;49.838;8.650;2022-07-23T03:54:19;14.98;;;9.70;;
43118;SDS011;28729;49.838;8.650;2022-07-23T03:58:21;14.25;;;9.30;;
43118;SDS011;28729;49.838;8.650;2022-07-23T04:02:22;15.07;;;9.52;;
43118;SDS011;28729;49.838;8.650;2022-07-23T04:06:24;14.70;;;9.17;;
43118;SDS011;28729;49.838;8.650;2022-07-23T04:10:27;13.93;;;9.52;;
43118;SDS011;28729;49.838;8.650;2022-07-23T04:14:29;13.75;;;9.60;;
43118;SDS011;28729;49.838;8.650;2022-07-23T04:18:31;16.23;;;9.10;;
43118;SDS011;28729;49.838;8.650;2022-07-23T04:22:53;15.60;;;9.70;;
43118;SDS011;28729;49.838;8.650;2022-07-23T04:26:56;17.02;;;9.82;;
43118;SDS011;28729;49.838;8.650;2022-07-23T04:30:58;14.40;;;10.27;;
43118;SDS011;28729;49.838;8.650;2022-07-23T04:39:02;19.00;;;9.60;;
43118;SDS011;28729;49.838;8.650;2022-07-23T04:47:10;14.35;;;8.85;;
43118;SDS011;28729;49.838;8.650;2022-07-23T04:51:16;11.98;;;8.57;;
43118;SDS011;28729;49.838;8.650;2022-07-23T04:55:17;13.23;;;8.27;;
43118;SDS011;28729;49.838;8.650;2022-07-23T04:59:19;13.70;;;9.05;;
43118;SDS011;28729;49.838;8.650;2022-07-23T05:03:25;14.65;;;9.43;;
43118;SDS011;28729;49.838;8.650;2022-07-23T05:07:27;13.33;;;8.77;;
43118;SDS011;28729;49.838;8.650;2022-07-23T05:11:30;13.88;;;8.55;;
43118;SDS011;28729;49.838;8.650;2022-07-23T05:15:32;15.38;;;8.73;;
43118;SDS011;28729;49.838;8.650;2022-07-23T05:19:35;14.32;;;8.60;;
43118;SDS011;28729;49.838;8.650;2022-07-23T05:23:37;13.88;;;9.20;;
43118;SDS011;28729;49.838;8.650;2022-07-23T05:27:39;13.23;;;9.27;;
43118;SDS011;28729;49.838;8.650;2022-07-23T05:31:41;14.18;;;9.30;;
43118;SDS011;28729;49.838;8.650;2022-07-23T05:35:42;15.25;;;8.63;;
43118;SDS011;28729;49.838;8.650;2022-07-23T05:40:02;12.02;;;8.05;;
43118;SDS011;28729;49.838;8.650;2022-07-23T05:44:05;10.40;;;8.02;;
43118;SDS011;28729;49.838;8.650;2022-07-23T05:48:10;13.05;;;8.38;;
43118;SDS011;28729;49.838;8.650;2022-07-23T05:52:21;15.40;;;9.45;;
43118;SDS011;28729;49.838;8.650;2022-07-23T05:56:41;15.50;;;8.57;;
43118;SDS011;28729;49.838;8.650;2022-07-23T06:00:43;12.93;;;8.40;;
43118;SDS011;28729;49.838;8.650;2022-07-23T06:04:45;10.43;;;7.75;;
43118;SDS011;28729;49.838;8.650;2022-07-23T06:09:06;12.95;;;8.25;;
43118;SDS011;28729;49.838;8.650;2022-07-23T06:13:09;10.85;;;7.57;;
43118;SDS011;28729;49.838;8.650;2022-07-23T06:17:11;11.20;;;8.10;;
43118;SDS011;28729;49.838;8.650;2022-07-23T06:21:12;11.38;;;8.25;;
43118;SDS011;28729;49.838;8.650;2022-07-23T06:25:34;12.25;;;8.57;;
43118;SDS011;28729;49.838;8.650;2022-07-23T06:29:35;10.48;;;7.80;;
43118;SDS011;28729;49.838;8.650;2022-07-23T06:33:37;15.50;;;8.60;;
43118;SDS011;28729;49.838;8.650;2022-07-23T06:37:39;11.88;;;8.85;;
43118;SDS011;28729;49.838;8.650;2022-07-23T06:41:41;11.00;;;8.20;;
43118;SDS011;28729;49.838;8.650;2022-07-23T06:45:47;13.88;;;8.98;;
43118;SDS011;28729;49.838;8.650;2022-07-23T06:49:50;12.60;;;8.10;;
43118;SDS011;28729;49.838;8.650;2022-07-23T06:53:51;13.40;;;8.07;;
43118;SDS011;28729;49.838;8.650;2022-07-23T06:57:53;14.65;;;8.80;;
43118;SDS011;28729;49.838;8.650;2022-07-23T07:01:55;11.55;;;8.05;;
43118;SDS011;28729;49.838;8.650;2022-07-23T07:05:59;14.73;;;8.65;;
43118;SDS011;28729;49.838;8.650;2022-07-23T07:10:01;10.75;;;8.73;;
43118;SDS011;28729;49.838;8.650;2022-07-23T07:14:04;14.20;;;7.90;;
43118;SDS011;28729;49.838;8.650;2022-07-23T07:18:06;10.93;;;7.85;;
43118;SDS011;28729;49.838;8.650;2022-07-23T07:22:07;13.95;;;7.95;;
43118;SDS011;28729;49.838;8.650;2022-07-23T07:26:09;11.85;;;8.00;;
43118;SDS011;28729;49.838;8.650;2022-07-23T07:30:11;13.07;;;7.95;;
43118;SDS011;28729;49.838;8.650;2022-07-23T07:34:13;11.23;;;7.20;;
43118;SDS011;28729;49.838;8.650;2022-07-23T07:38:17;11.05;;;7.53;;
43118;SDS011;28729;49.838;8.650;2022-07-23T07:42:19;12.50;;;8.30;;
43118;SDS011;28729;49.838;8.650;2022-07-23T07:46:27;11.23;;;7.45;;
43118;SDS011;28729;49.838;8.650;2022-07-23T07:50:29;10.17;;;7.23;;
43118;SDS011;28729;49.838;8.650;2022-07-23T07:54:31;13.80;;;7.47;;
43118;SDS011;28729;49.838;8.650;2022-07-23T08:02:42;10.43;;;7.50;;
43118;SDS011;28729;49.838;8.650;2022-07-23T08:06:44;12.65;;;6.88;;
43118;SDS011;28729;49.838;8.650;2022-07-23T08:10:46;12.43;;;8.37;;
43118;SDS011;28729;49.838;8.650;2022-07-23T08:14:48;9.85;;;6.95;;
43118;SDS011;28729;49.838;8.650;2022-07-23T08:18:49;11.43;;;6.78;;
43118;SDS011;28729;49.838;8.650;2022-07-23T08:22:53;12.67;;;7.63;;
43118;SDS011;28729;49.838;8.650;2022-07-23T08:26:56;10.90;;;7.43;;
43118;SDS011;28729;49.838;8.650;2022-07-23T08:30:58;14.68;;;7.55;;
43118;SDS011;28729;49.838;8.650;2022-07-23T08:39:02;12.38;;;7.20;;
43118;SDS011;28729;49.838;8.650;2022-07-23T08:43:06;11.05;;;6.97;;
43118;SDS011;28729;49.838;8.650;2022-07-23T08:47:10;10.68;;;7.00;;
43118;SDS011;28729;49.838;8.650;2022-07-23T08:51:13;11.93;;;7.30;;
43118;SDS011;28729;49.838;8.650;2022-07-23T08:55:16;12.23;;;7.68;;
43118;SDS011;28729;49.838;8.650;2022-07-23T08:59:19;8.90;;;6.68;;
43118;SDS011;28729;49.838;8.650;2022-07-23T09:03:22;10.73;;;6.73;;
43118;SDS011;28729;49.838;8.650;2022-07-23T09:07:25;12.27;;;7.43;;
43118;SDS011;28729;49.838;8.650;2022-07-23T09:11:27;10.30;;;7.67;;
43118;SDS011;28729;49.838;8.650;2022-07-23T09:15:28;13.10;;;7.23;;
43118;SDS011;28729;49.838;8.650;2022-07-23T09:19:30;14.67;;;8.07;;
43118;SDS011;28729;49.838;8.650;2022-07-23T09:23:39;12.47;;;7.20;;
43118;SDS011;28729;49.838;8.650;2022-07-23T09:35:58;10.27;;;6.88;;
43118;SDS011;28729;49.838;8.650;2022-07-23T09:40:09;8.33;;;6.80;;
43118;SDS011;28729;49.838;8.650;2022-07-23T09:44:19;9.10;;;6.95;;
43118;SDS011;28729;49.838;8.650;2022-07-23T09:48:28;8.73;;;6.45;;
43118;SDS011;28729;49.838;8.650;2022-07-23T09:52:32;9.50;;;7.03;;
43118;SDS011;28729;49.838;8.650;2022-07-23T09:56:36;7.97;;;6.93;;
43118;SDS011;28729;49.838;8.650;2022-07-23T10:00:38;10.57;;;7.25;;
43118;SDS011;28729;49.838;8.650;2022-07-23T10:09:00;10.07;;;7.28;;
43118;SDS011;28729;49.838;8.650;2022-07-23T10:13:21;8.80;;;6.60;;
43118;SDS011;28729;49.838;8.650;2022-07-23T10:17:52;8.40;;;7.07;;
43118;SDS011;28729;49.838;8.650;2022-07-23T10:21:56;11.20;;;7.70;;
43118;SDS011;28729;49.838;8.650;2022-07-23T10:39:05;8.70;;;6.88;;
43118;SDS011;28729;49.838;8.650;2022-07-23T10:43:13;9.95;;;7.40;;
43118;SDS011;28729;49.838;8.650;2022-07-23T10:47:25;10.15;;;7.60;;
43118;SDS011;28729;49.838;8.650;2022-07-23T10:52:09;10.93;;;7.28;;
43118;SDS011;28729;49.838;8.650;2022-07-23T10:56:15;8.82;;;7.28;;
43118;SDS011;28729;49.838;8.650;2022-07-23T11:00:20;12.55;;;8.75;;
43118;SDS011;28729;49.838;8.650;2022-07-23T11:13:28;10.73;;;8.18;;
43118;SDS011;28729;49.838;8.650;2022-07-23T11:17:38;11.68;;;6.72;;
43118;SDS011;28729;49.838;8.650;2022-07-23T11:21:58;10.93;;;7.65;;
43118;SDS011;28729;49.838;8.650;2022-07-23T11:25:59;9.13;;;7.55;;
43118;SDS011;28729;49.838;8.650;2022-07-23T11:30:01;9.07;;;7.35;;
43118;SDS011;28729;49.838;8.650;2022-07-23T11:38:34;12.38;;;7.78;;
43118;SDS011;28729;49.838;8.650;2022-07-23T11:42:39;10.07;;;7.75;;
43118;SDS011;28729;49.838;8.650;2022-07-23T11:46:59;10.30;;;7.82;;
43118;SDS011;28729;49.838;8.650;2022-07-23T11:51:02;10.38;;;7.30;;
43118;SDS011;28729;49.838;8.650;2022-07-23T11:55:05;10.93;;;7.55;;
43118;SDS011;28729;49.838;8.650;2022-07-23T11:59:09;10.32;;;7.85;;
43118;SDS011;28729;49.838;8.650;2022-07-23T12:03:12;8.35;;;7.43;;
43118;SDS011;28729;49.838;8.650;2022-07-23T12:07:28;8.93;;;7.80;;
43118;SDS011;28729;49.838;8.650;2022-07-23T12:11:33;10.50;;;7.22;;
43118;SDS011;28729;49.838;8.650;2022-07-23T12:15:48;8.02;;;7.03;;
43118;SDS011;28729;49.838;8.650;2022-07-23T12:19:52;11.52;;;7.68;;
43118;SDS011;28729;49.838;8.650;2022-07-23T12:24:04;13.30;;;7.85;;
43118;SDS011;28729;49.838;8.650;2022-07-23T12:28:12;11.85;;;8.57;;
43118;SDS011;28729;49.838;8.650;2022-07-23T12:32:28;7.93;;;6.93;;
43118;SDS011;28729;49.838;8.650;2022-07-23T12:52:17;8.70;;;7.75;;
43118;SDS011;28729;49.838;8.650;2022-07-23T13:00:23;9.38;;;7.97;;
43118;SDS011;28729;49.838;8.650;2022-07-23T13:04:25;8.65;;;7.75;;
43118;SDS011;28729;49.838;8.650;2022-07-23T13:08:28;7.82;;;7.03;;
43118;SDS011;28729;49.838;8.650;2022-07-23T13:12:31;8.38;;;7.03;;
43118;SDS011;28729;49.838;8.650;2022-07-23T13:20:35;8.07;;;7.22;;
43118;SDS011;28729;49.838;8.650;2022-07-23T13:24:40;9.80;;;7.22;;
43118;SDS011;28729;49.838;8.650;2022-07-23T13:28:42;8.32;;;7.30;;
43118;SDS011;28729;49.838;8.650;2022-07-23T13:32:44;9.90;;;7.15;;
43118;SDS011;28729;49.838;8.650;2022-07-23T13:36:45;9.20;;;7.75;;
43118;SDS011;28729;49.838;8.650;2022-07-23T13:40:48;8.07;;;7.28;;
43118;SDS011;28729;49.838;8.650;2022-07-23T13:44:50;7.80;;;7.00;;
43118;SDS011;28729;49.838;8.650;2022-07-23T13:48:52;8.57;;;7.68;;
43118;SDS011;28729;49.838;8.650;2022-07-23T13:52:54;8.82;;;6.93;;
43118;SDS011;28729;49.838;8.650;2022-07-23T13:56:57;7.95;;;7.15;;
43118;SDS011;28729;49.838;8.650;2022-07-23T14:00:59;8.70;;;7.32;;
43118;SDS011;28729;49.838;8.650;2022-07-23T14:05:00;8.20;;;7.25;;
43118;SDS011;28729;49.838;8.650;2022-07-23T14:09:02;7.75;;;7.05;;
43118;SDS011;28729;49.838;8.650;2022-07-23T14:13:04;8.00;;;7.18;;
43118;SDS011;28729;49.838;8.650;2022-07-23T14:17:08;8.27;;;7.38;;
43118;SDS011;28729;49.838;8.650;2022-07-23T14:21:11;8.05;;;7.15;;
43118;SDS011;28729;49.838;8.650;2022-07-23T14:25:13;8.18;;;7.38;;
43118;SDS011;28729;49.838;8.650;2022-07-23T14:29:15;7.57;;;6.80;;
43118;SDS011;28729;49.838;8.650;2022-07-23T14:33:17;9.85;;;7.10;;
43118;SDS011;28729;49.838;8.650;2022-07-23T14:37:19;7.38;;;6.68;;
43118;SDS011;28729;49.838;8.650;2022-07-23T14:41:20;7.20;;;6.50;;
43118;SDS011;28729;49.838;8.650;2022-07-23T14:45:28;7.53;;;6.82;;
43118;SDS011;28729;49.838;8.650;2022-07-23T14:49:31;8.50;;;6.78;;
43118;SDS011;28729;49.838;8.650;2022-07-23T14:53:34;7.65;;;6.80;;
43118;SDS011;28729;49.838;8.650;2022-07-23T14:57:35;8.10;;;7.40;;
43118;SDS011;28729;49.838;8.650;2022-07-23T15:01:37;9.98;;;7.38;;
43118;SDS011;28729;49.838;8.650;2022-07-23T15:05:40;8.52;;;7.07;;
43118;SDS011;28729;49.838;8.650;2022-07-23T15:09:41;9.10;;;7.63;;
43118;SDS011;28729;49.838;8.650;2022-07-23T15:13:43;9.93;;;7.22;;
43118;SDS011;28729;49.838;8.650;2022-07-23T15:17:47;8.95;;;7.22;;
43118;SDS011;28729;49.838;8.650;2022-07-23T15:21:50;8.77;;;7.90;;
43118;SDS011;28729;49.838;8.650;2022-07-23T15:25:55;7.72;;;6.97;;
43118;SDS011;28729;49.838;8.650;2022-07-23T15:29:57;9.05;;;7.30;;
43118;SDS011;28729;49.838;8.650;2022-07-23T15:34:00;8.00;;;7.20;;
43118;SDS011;28729;49.838;8.650;2022-07-23T15:38:02;8.82;;;7.95;;
43118;SDS011;28729;49.838;8.650;2022-07-23T15:42:13;8.83;;;7.20;;
43118;SDS011;28729;49.838;8.650;2022-07-23T15:50:36;12.18;;;7.25;;
43118;SDS011;28729;49.838;8.650;2022-07-23T15:54:44;8.15;;;7.32;;
43118;SDS011;28729;49.838;8.650;2022-07-23T15:58:45;7.25;;;6.55;;
43118;SDS011;28729;49.838;8.650;2022-07-23T16:06:49;8.70;;;6.60;;
43118;SDS011;28729;49.838;8.650;2022-07-23T16:10:50;7.30;;;6.30;;
43118;SDS011;28729;49.838;8.650;2022-07-23T16:14:52;9.95;;;6.32;;
43118;SDS011;28729;49.838;8.650;2022-07-23T16:18:54;9.88;;;7.57;;
43118;SDS011;28729;49.838;8.650;2022-07-23T16:22:57;10.55;;;7.38;;
43118;SDS011;28729;49.838;8.650;2022-07-23T16:26:58;8.70;;;7.80;;
43118;SDS011;28729;49.838;8.650;2022-07-23T16:31:06;8.55;;;6.80;;
43118;SDS011;28729;49.838;8.650;2022-07-23T16:35:09;8.63;;;6.78;;
43118;SDS011;28729;49.838;8.650;2022-07-23T16:39:14;9.48;;;6.80;;
43118;SDS011;28729;49.838;8.650;2022-07-23T16:43:16;8.25;;;7.45;;
43118;SDS011;28729;49.838;8.650;2022-07-23T16:55:22;9.32;;;6.13;;
43118;SDS011;28729;49.838;8.650;2022-07-23T16:59:24;8.23;;;6.47;;
43118;SDS011;28729;49.838;8.650;2022-07-23T17:03:26;9.30;;;6.63;;
43118;SDS011;28729;49.838;8.650;2022-07-23T17:07:29;11.20;;;7.53;;
43118;SDS011;28729;49.838;8.650;2022-07-23T17:11:31;8.63;;;7.45;;
43118;SDS011;28729;49.838;8.650;2022-07-23T17:15:33;8.60;;;6.45;;
43118;SDS011;28729;49.838;8.650;2022-07-23T17:19:36;9.20;;;6.13;;
43118;SDS011;28729;49.838;8.650;2022-07-23T17:23:37;7.20;;;6.10;;
43118;SDS011;28729;49.838;8.650;2022-07-23T17:27:40;10.02;;;6.60;;
43118;SDS011;28729;49.838;8.650;2022-07-23T17:31:43;6.68;;;5.97;;
43118;SDS011;28729;49.838;8.650;2022-07-23T17:35:45;8.30;;;6.00;;
43118;SDS011;28729;49.838;8.650;2022-07-23T17:39:47;10.57;;;6.50;;
43118;SDS011;28729;49.838;8.650;2022-07-23T17:43:48;12.55;;;6.38;;
43118;SDS011;28729;49.838;8.650;2022-07-23T17:47:50;8.20;;;6.20;;
43118;SDS011;28729;49.838;8.650;2022-07-23T17:51:51;8.45;;;6.20;;
43118;SDS011;28729;49.838;8.650;2022-07-23T17:55:53;9.40;;;6.22;;
43118;SDS011;28729;49.838;8.650;2022-07-23T17:59:55;8.82;;;5.22;;
43118;SDS011;28729;49.838;8.650;2022-07-23T18:03:57;8.23;;;6.07;;
43118;SDS011;28729;49.838;8.650;2022-07-23T18:08:00;8.43;;;6.18;;
43118;SDS011;28729;49.838;8.650;2022-07-23T18:12:03;9.68;;;6.70;;
43118;SDS011;28729;49.838;8.650;2022-07-23T18:16:05;6.45;;;5.38;;
43118;SDS011;28729;49.838;8.650;2022-07-23T18:20:08;7.85;;;4.90;;
43118;SDS011;28729;49.838;8.650;2022-07-23T18:24:10;6.85;;;5.40;;
43118;SDS011;28729;49.838;8.650;2022-07-23T18:28:12;7.07;;;5.53;;
43118;SDS011;28729;49.838;8.650;2022-07-23T18:32:14;6.95;;;5.45;;
43118;SDS011;28729;49.838;8.650;2022-07-23T18:36:16;7.40;;;4.80;;
43118;SDS011;28729;49.838;8.650;2022-07-23T18:40:19;6.88;;;4.70;;
43118;SDS011;28729;49.838;8.650;2022-07-23T18:44:21;8.18;;;5.22;;
43118;SDS011;28729;49.838;8.650;2022-07-23T18:48:22;8.33;;;4.87;;
43118;SDS011;28729;49.838;8.650;2022-07-23T18:52:24;6.85;;;4.57;;
43118;SDS011;28729;49.838;8.650;2022-07-23T18:56:26;6.15;;;4.68;;
43118;SDS011;28729;49.838;8.650;2022-07-23T19:00:31;7.70;;;4.90;;
43118;SDS011;28729;49.838;8.650;2022-07-23T19:04:37;9.73;;;5.13;;
43118;SDS011;28729;49.838;8.650;2022-07-23T19:08:38;7.33;;;4.47;;
43118;SDS011;28729;49.838;8.650;2022-07-23T19:12:42;6.78;;;4.85;;
43118;SDS011;28729;49.838;8.650;2022-07-23T19:16:44;6.05;;;4.78;;
43118;SDS011;28729;49.838;8.650;2022-07-23T19:20:45;9.57;;;4.83;;
43118;SDS011;28729;49.838;8.650;2022-07-23T19:24:47;5.27;;;4.57;;
43118;SDS011;28729;49.838;8.650;2022-07-23T19:28:49;7.70;;;5.00;;
43118;SDS011;28729;49.838;8.650;2022-07-23T19:32:50;7.33;;;4.33;;
43118;SDS011;28729;49.838;8.650;2022-07-23T19:36:52;6.03;;;4.30;;
43118;SDS011;28729;49.838;8.650;2022-07-23T19:40:54;6.43;;;4.80;;
43118;SDS011;28729;49.838;8.650;2022-07-23T19:44:56;5.43;;;4.57;;
43118;SDS011;28729;49.838;8.650;2022-07-23T19:48:58;9.37;;;5.10;;
43118;SDS011;28729;49.838;8.650;2022-07-23T19:53:00;7.23;;;4.80;;
43118;SDS011;28729;49.838;8.650;2022-07-23T19:57:02;7.57;;;4.45;;
43118;SDS011;28729;49.838;8.650;2022-07-23T20:01:03;6.10;;;4.67;;
43118;SDS011;28729;49.838;8.650;2022-07-23T20:05:06;7.90;;;5.07;;
43118;SDS011;28729;49.838;8.650;2022-07-23T20:09:10;8.02;;;4.60;;
43118;SDS011;28729;49.838;8.650;2022-07-23T20:13:11;7.20;;;4.77;;
43118;SDS011;28729;49.838;8.650;2022-07-23T20:17:14;5.88;;;4.13;;
43118;SDS011;28729;49.838;8.650;2022-07-23T20:21:17;6.13;;;4.28;;
43118;SDS011;28729;49.838;8.650;2022-07-23T20:25:19;7.15;;;4.00;;
43118;SDS011;28729;49.838;8.650;2022-07-23T20:29:21;5.63;;;4.25;;
43118;SDS011;28729;49.838;8.650;2022-07-23T20:33:25;5.90;;;3.85;;
43118;SDS011;28729;49.838;8.650;2022-07-23T20:37:27;6.07;;;3.85;;
43118;SDS011;28729;49.838;8.650;2022-07-23T20:41:28;6.95;;;4.47;;
43118;SDS011;28729;49.838;8.650;2022-07-23T20:45:30;6.40;;;3.95;;
43118;SDS011;28729;49.838;8.650;2022-07-23T20:49:32;6.53;;;4.37;;
43118;SDS011;28729;49.838;8.650;2022-07-23T20:53:34;8.00;;;4.25;;
43118;SDS011;28729;49.838;8.650;2022-07-23T20:57:35;7.32;;;4.40;;
43118;SDS011;28729;49.838;8.650;2022-07-23T21:01:37;11.70;;;4.25;;
43118;SDS011;28729;49.838;8.650;2022-07-23T21:05:39;6.77;;;4.97;;
43118;SDS011;28729;49.838;8.650;2022-07-23T21:09:42;7.38;;;4.25;;
43118;SDS011;28729;49.838;8.650;2022-07-23T21:13:43;8.70;;;4.18;;
43118;SDS011;28729;49.838;8.650;2022-07-23T21:17:46;6.20;;;4.63;;
43118;SDS011;28729;49.838;8.650;2022-07-23T21:21:48;8.10;;;4.20;;
43118;SDS011;28729;49.838;8.650;2022-07-23T21:25:49;6.80;;;4.72;;
43118;SDS011;28729;49.838;8.650;2022-07-23T21:30:12;8.75;;;4.75;;
43118;SDS011;28729;49.838;8.650;2022-07-23T21:34:14;8.70;;;4.47;;
43118;SDS011;28729;49.838;8.650;2022-07-23T21:38:16;6.10;;;4.35;;
43118;SDS011;28729;49.838;8.650;2022-07-23T21:42:17;8.52;;;4.70;;
43118;SDS011;28729;49.838;8.650;2022-07-23T21:46:22;10.98;;;5.03;;
43118;SDS011;28729;49.838;8.650;2022-07-23T21:50:24;7.47;;;4.40;;
43118;SDS011;28729;49.838;8.650;2022-07-23T21:54:26;5.95;;;4.35;;
43118;SDS011;28729;49.838;8.650;2022-07-23T21:58:27;7.28;;;4.25;;
43118;SDS011;28729;49.838;8.650;2022-07-23T22:02:29;6.80;;;4.60;;
43118;SDS011;28729;49.838;8.650;2022-07-23T22:06:31;6.35;;;4.70;;
43118;SDS011;28729;49.838;8.650;2022-07-23T22:10:33;9.87;;;5.10;;
43118;SDS011;28729;49.838;8.650;2022-07-23T22:14:34;7.38;;;4.93;;
43118;SDS011;28729;49.838;8.650;2022-07-23T22:18:37;8.73;;;4.80;;
43118;SDS011;28729;49.838;8.650;2022-07-23T22:22:41;7.80;;;4.60;;
43118;SDS011;28729;49.838;8.650;2022-07-23T22:26:48;5.53;;;4.57;;
43118;SDS011;28729;49.838;8.650;2022-07-23T22:30:50;7.57;;;5.00;;
43118;SDS011;28729;49.838;8.650;2022-07-23T22:34:54;7.72;;;4.97;;
43118;SDS011;28729;49.838;8.650;2022-07-23T22:38:56;9.43;;;4.75;;
43118;SDS011;28729;49.838;8.650;2022-07-23T22:42:58;7.38;;;4.50;;
43118;SDS011;28729;49.838;8.650;2022-07-23T22:47:00;6.15;;;4.40;;
43118;SDS011;28729;49.838;8.650;2022-07-23T22:55:04;7.18;;;5.07;;
43118;SDS011;28729;49.838;8.650;2022-07-23T22:59:06;8.95;;;4.85;;
43118;SDS011;28729;49.838;8.650;2022-07-23T23:03:28;6.50;;;4.45;;
43118;SDS011;28729;49.838;8.650;2022-07-23T23:07:30;7.03;;;4.80;;
43118;SDS011;28729;49.838;8.650;2022-07-23T23:11:32;7.78;;;4.75;;
43118;SDS011;28729;49.838;8.650;2022-07-23T23:15:33;7.47;;;4.88;;
43118;SDS011;28729;49.838;8.650;2022-07-23T23:19:35;8.82;;;4.72;;
43118;SDS011;28729;49.838;8.650;2022-07-23T23:23:37;6.05;;;4.78;;
43118;SDS011;28729;49.838;8.650;2022-07-23T23:27:39;9.13;;;5.00;;
43118;SDS011;28729;49.838;8.650;2022-07-23T23:31:41;8.17;;;4.67;;
43118;SDS011;28729;49.838;8.650;2022-07-23T23:35:43;8.23;;;5.35;;
43118;SDS011;28729;49.838;8.650;2022-07-23T23:39:44;9.70;;;5.15;;
43118;SDS011;28729;49.838;8.650;2022-07-23T23:43:46;8.93;;;5.00;;
43118;SDS011;28729;49.838;8.650;2022-07-23T23:47:49;8.45;;;4.93;;
43118;SDS011;28729;49.838;8.650;2022-07-23T23:51:51;10.02;;;4.72;;
43118;SDS011;28729;49.838;8.650;2022-07-23T23:55:53;7.55;;;5.13;;
43118;SDS011;28729;49.838;8.650;2022-07-23T23:59:57;7.43;;;4.30;;
